Time;durP1;ratioP1;P1;durP2;ratioP2;P2;SDS_P1;SDS_P2;PMS_P1;PMS_P2;Temp;Humidity;BMP_temperature;BMP_pressure;BME280_temperature;BME280_humidity;BME280_pressure;Samples;Min_cycle;Max_cycle;Signal;HPM_P1;HPM_P2
2021/08/03 00:00:32;;;;;;;9.52;7.20;;;;;;;14.89;69.67;98364.22;5094343;28;20538;-70
2021/08/03 00:03:01;;;;;;;13.45;6.82;;;;;;;14.86;69.84;98373.16;5094299;28;20052;-71
2021/08/03 00:05:30;;;;;;;9.15;6.22;;;;;;;14.82;70.11;98376.91;5094188;28;20063;-71
2021/08/03 00:08:02;;;;;;;13.07;6.47;;;;;;;14.76;69.94;98364.41;5094092;28;20035;-71
2021/08/03 00:10:29;;;;;;;12.48;6.85;;;;;;;14.73;70.17;98372.19;5093076;28;20047;-71
2021/08/03 00:12:55;;;;;;;11.70;6.72;;;;;;;14.71;70.45;98371.69;5093317;28;20032;-71
2021/08/03 00:15:21;;;;;;;11.45;6.55;;;;;;;14.70;70.30;98367.31;5094474;28;20061;-71
2021/08/03 00:17:51;;;;;;;10.20;6.70;;;;;;;14.69;70.59;98370.41;5094640;28;20093;-72
2021/08/03 00:20:17;;;;;;;10.38;6.60;;;;;;;14.66;70.77;98376.56;5094324;28;20055;-71
2021/08/03 00:22:43;;;;;;;11.30;7.55;;;;;;;14.64;70.52;98381.59;5094359;28;20160;-71
2021/08/03 00:25:09;;;;;;;8.38;6.80;;;;;;;14.62;70.45;98372.81;5094634;28;20525;-71
2021/08/03 00:27:34;;;;;;;12.10;7.18;;;;;;;14.61;70.85;98385.00;5093035;28;20032;-71
2021/08/03 00:30:02;;;;;;;10.90;6.75;;;;;;;14.62;70.90;98394.91;5094029;28;20379;-70
2021/08/03 00:32:27;;;;;;;11.60;6.80;;;;;;;14.63;70.91;98388.25;5094245;28;20024;-70
2021/08/03 00:34:53;;;;;;;9.18;6.53;;;;;;;14.62;71.13;98390.22;5096796;28;20043;-71
2021/08/03 00:37:18;;;;;;;9.88;6.68;;;;;;;14.63;70.95;98391.00;5099987;28;20036;-71
2021/08/03 00:39:44;;;;;;;9.75;6.93;;;;;;;14.62;70.81;98392.13;5100485;28;20044;-72
2021/08/03 00:42:09;;;;;;;11.75;7.43;;;;;;;14.61;70.91;98396.03;5098044;28;20028;-72
2021/08/03 00:44:53;;;;;;;13.27;7.18;;;;;;;14.61;70.85;98385.81;5092467;28;20379;-73
2021/08/03 00:47:19;;;;;;;10.18;6.78;;;;;;;14.62;71.42;98383.84;5093851;28;20028;-72
2021/08/03 00:49:46;;;;;;;11.05;6.85;;;;;;;14.65;71.12;98383.22;5093429;28;20071;-73
2021/08/03 00:52:14;;;;;;;7.65;6.18;;;;;;;14.67;70.87;98387.25;5094049;28;20063;-74
2021/08/03 00:54:40;;;;;;;9.68;6.25;;;;;;;14.70;71.64;98378.34;5093723;28;20024;-73
2021/08/03 00:57:07;;;;;;;8.27;6.22;;;;;;;14.70;71.14;98381.13;5092844;28;20545;-72
2021/08/03 00:59:33;;;;;;;11.90;7.10;;;;;;;14.77;71.15;98385.34;5093987;28;20024;-72
2021/08/03 01:01:59;;;;;;;10.93;6.60;;;;;;;14.78;71.40;98387.78;5093883;28;20028;-72
2021/08/03 01:04:24;;;;;;;10.05;6.35;;;;;;;14.80;71.05;98381.94;5093392;28;20093;-73
2021/08/03 01:07:12;;;;;;;9.55;6.70;;;;;;;14.76;70.84;98389.25;5092508;28;20024;-73
2021/08/03 01:10:04;;;;;;;8.57;6.05;;;;;;;14.73;70.87;98380.47;5092299;28;20369;-73
2021/08/03 01:12:45;;;;;;;9.57;6.30;;;;;;;14.72;70.84;98376.09;5091183;28;20031;-73
2021/08/03 01:15:17;;;;;;;8.52;6.03;;;;;;;14.76;71.27;98380.97;5091255;28;20102;-73
2021/08/03 01:17:58;;;;;;;8.90;6.72;;;;;;;14.75;71.10;98380.16;5090048;28;20393;-73
2021/08/03 01:20:29;;;;;;;8.77;6.30;;;;;;;14.78;71.27;98375.91;5090122;28;20093;-73
2021/08/03 01:23:15;;;;;;;8.45;6.10;;;;;;;14.77;71.15;98380.66;5092297;28;20031;-73
2021/08/03 01:26:08;;;;;;;8.93;6.15;;;;;;;14.76;71.19;98378.19;5092245;28;20035;-71
2021/08/03 01:28:37;;;;;;;10.80;7.35;;;;;;;14.76;71.27;98376.25;5091195;28;20107;-71
2021/08/03 01:31:07;;;;;;;11.10;6.57;;;;;;;14.79;71.46;98375.63;5088556;28;20047;-71
2021/08/03 01:33:36;;;;;;;11.95;7.03;;;;;;;14.77;71.42;98374.31;5091016;28;20270;-72
2021/08/03 01:36:03;;;;;;;14.43;8.15;;;;;;;14.81;71.23;98378.84;5089378;28;20103;-71
2021/08/03 01:38:32;;;;;;;10.23;6.82;;;;;;;14.86;71.39;98375.94;5092372;28;20051;-71
2021/08/03 01:41:06;;;;;;;11.18;7.00;;;;;;;14.89;70.79;98379.97;5092001;28;20028;-72
2021/08/03 01:43:33;;;;;;;9.65;6.80;;;;;;;14.89;71.31;98383.53;5091969;28;20024;-71
2021/08/03 01:45:59;;;;;;;12.70;7.72;;;;;;;14.91;71.22;98388.75;5091834;28;20054;-71
2021/08/03 01:48:26;;;;;;;11.27;6.43;;;;;;;14.92;71.16;98390.38;5091753;28;20465;-71
2021/08/03 01:50:53;;;;;;;11.55;7.03;;;;;;;14.96;70.80;98396.03;5091665;28;20645;-70
2021/08/03 01:53:22;;;;;;;10.15;6.47;;;;;;;14.99;71.17;98396.22;5091761;28;20051;-70
2021/08/03 01:55:48;;;;;;;10.95;6.80;;;;;;;14.99;70.74;98393.47;5091739;28;20470;-71
2021/08/03 01:58:15;;;;;;;11.18;6.88;;;;;;;15.00;70.45;98385.97;5091818;28;20028;-70
2021/08/03 02:00:42;;;;;;;9.75;6.20;;;;;;;14.98;70.37;98383.53;5091690;28;20016;-71
2021/08/03 02:03:10;;;;;;;14.88;7.20;;;;;;;14.95;70.64;98386.13;5090020;28;20401;-70
2021/08/03 02:05:36;;;;;;;11.95;7.07;;;;;;;14.95;70.49;98398.00;5091558;28;20028;-71
2021/08/03 02:08:02;;;;;;;15.15;8.30;;;;;;;14.97;70.43;98389.38;5089103;28;20035;-70
2021/08/03 02:10:28;;;;;;;20.83;10.40;;;;;;;14.96;70.24;98396.03;5091800;28;20024;-70
2021/08/03 02:12:54;;;;;;;21.77;9.85;;;;;;;14.95;70.53;98391.66;5091688;28;20028;-71
2021/08/03 02:15:19;;;;;;;18.30;9.73;;;;;;;14.92;70.33;98398.66;5091589;28;20013;-70
2021/08/03 02:17:45;;;;;;;18.15;9.40;;;;;;;14.92;69.97;98404.19;5091089;28;20028;-70
2021/08/03 02:20:11;;;;;;;14.38;8.75;;;;;;;14.91;70.13;98412.78;5091393;28;20027;-70
2021/08/03 02:22:37;;;;;;;13.70;8.32;;;;;;;14.88;70.00;98401.25;5091244;28;20129;-71
2021/08/03 02:25:03;;;;;;;13.13;7.85;;;;;;;14.88;69.92;98406.75;5088625;28;20107;-70
2021/08/03 02:27:28;;;;;;;20.05;9.63;;;;;;;14.84;69.91;98413.28;5091366;28;20477;-71
2021/08/03 02:29:56;;;;;;;14.40;8.88;;;;;;;14.82;69.92;98416.38;5091376;28;20070;-70
2021/08/03 02:32:27;;;;;;;16.52;9.40;;;;;;;14.81;69.94;98413.94;5091319;28;20024;-71
2021/08/03 02:35:08;;;;;;;12.90;8.75;;;;;;;14.78;70.27;98414.56;5091323;28;20450;-70
2021/08/03 02:37:36;;;;;;;12.25;8.18;;;;;;;14.78;70.23;98420.91;5090120;28;20016;-70
2021/08/03 02:40:04;;;;;;;14.02;8.27;;;;;;;14.74;70.24;98420.75;5091272;28;20359;-71
2021/08/03 02:42:31;;;;;;;12.25;7.55;;;;;;;14.67;70.18;98422.34;5091365;28;20045;-70
2021/08/03 02:45:01;;;;;;;12.90;7.93;;;;;;;14.59;70.42;98421.22;5091091;28;20154;-70
2021/08/03 02:47:35;;;;;;;13.10;7.65;;;;;;;14.56;70.37;98419.91;5078319;28;20024;-70
2021/08/03 02:50:07;;;;;;;12.32;7.50;;;;;;;14.55;70.54;98418.28;5091233;28;20089;-71
2021/08/03 02:52:38;;;;;;;10.80;7.43;;;;;;;14.54;70.58;98424.94;5089883;28;20065;-71
2021/08/03 02:55:12;;;;;;;9.98;6.60;;;;;;;14.56;70.35;98419.09;5088592;28;20020;-70
2021/08/03 02:57:40;;;;;;;11.27;7.43;;;;;;;14.57;70.64;98427.03;5089485;28;20081;-70
2021/08/03 03:00:06;;;;;;;10.30;7.40;;;;;;;14.62;71.03;98433.53;5088574;28;20019;-71
2021/08/03 03:02:37;;;;;;;11.27;7.45;;;;;;;14.63;70.73;98432.41;5090797;28;20036;-70
2021/08/03 03:05:09;;;;;;;11.55;7.57;;;;;;;14.62;70.74;98431.59;5090921;28;20035;-69
2021/08/03 03:07:46;;;;;;;12.07;7.20;;;;;;;14.63;70.76;98429.66;5089980;28;20028;-70
2021/08/03 03:10:41;;;;;;;8.80;6.40;;;;;;;14.61;70.84;98432.75;5088050;28;20115;-70
2021/08/03 03:13:22;;;;;;;11.57;7.10;;;;;;;14.65;70.65;98432.91;5088241;28;20449;-70
2021/08/03 03:15:50;;;;;;;12.45;6.38;;;;;;;14.66;70.48;98435.34;5088756;28;20070;-70
2021/08/03 03:18:18;;;;;;;8.55;6.15;;;;;;;14.67;70.80;98434.19;5090683;28;20099;-70
2021/08/03 03:20:45;;;;;;;10.23;7.18;;;;;;;14.68;70.31;98441.31;5088057;28;20036;-70
2021/08/03 03:23:14;;;;;;;10.73;7.15;;;;;;;14.68;70.53;98443.28;5090736;28;20028;-70
2021/08/03 03:25:41;;;;;;;12.13;7.55;;;;;;;14.68;70.26;98446.06;5090672;28;20038;-70
2021/08/03 03:28:07;;;;;;;10.18;7.15;;;;;;;14.67;70.24;98449.94;5090640;28;20059;-69
2021/08/03 03:30:33;;;;;;;13.27;8.07;;;;;;;14.66;70.30;98443.63;5091271;28;20110;-70
2021/08/03 03:33:04;;;;;;;13.65;7.82;;;;;;;14.66;70.07;98442.81;5094450;28;20028;-70
2021/08/03 03:35:35;;;;;;;12.00;8.00;;;;;;;14.65;70.07;98449.47;5092999;28;20020;-70
2021/08/03 03:38:01;;;;;;;15.10;7.55;;;;;;;14.65;70.32;98438.41;5094349;28;20106;-70
2021/08/03 03:40:28;;;;;;;12.82;8.70;;;;;;;14.65;70.41;98446.69;5094126;28;20081;-70
2021/08/03 03:42:56;;;;;;;12.10;7.57;;;;;;;14.63;69.98;98444.28;5094260;28;20016;-70
2021/08/03 03:45:22;;;;;;;12.68;7.88;;;;;;;14.63;70.11;98447.03;5094065;28;20069;-70
2021/08/03 03:47:59;;;;;;;12.73;7.75;;;;;;;14.62;70.21;98455.63;5094021;28;20020;-69
2021/08/03 03:50:36;;;;;;;10.77;6.93;;;;;;;14.58;70.26;98453.50;5091412;28;20452;-70
2021/08/03 03:53:08;;;;;;;8.68;6.78;;;;;;;14.57;70.44;98457.41;5094051;28;20031;-70
2021/08/03 03:55:35;;;;;;;12.77;7.07;;;;;;;14.55;70.43;98454.16;5093783;28;20063;-69
2021/08/03 03:58:02;;;;;;;9.48;6.72;;;;;;;14.54;70.54;98452.53;5093580;28;20389;-70
2021/08/03 04:00:29;;;;;;;11.80;6.85;;;;;;;14.56;70.51;98461.28;5093669;28;20039;-70
2021/08/03 04:02:55;;;;;;;12.23;7.22;;;;;;;14.59;70.44;98454.34;5093343;28;20494;-69
2021/08/03 04:05:21;;;;;;;11.55;7.60;;;;;;;14.61;70.54;98456.75;5093442;28;20484;-70
2021/08/03 04:07:52;;;;;;;11.00;6.90;;;;;;;14.63;70.59;98458.06;5093511;28;20060;-70
2021/08/03 04:10:29;;;;;;;12.10;6.95;;;;;;;14.63;71.02;98468.28;5093518;28;20028;-70
2021/08/03 04:12:56;;;;;;;11.43;6.88;;;;;;;14.61;70.73;98476.91;5092013;28;20447;-70
2021/08/03 04:15:22;;;;;;;11.50;7.20;;;;;;;14.61;70.98;98465.03;5093081;28;20047;-70
2021/08/03 04:17:47;;;;;;;10.57;6.65;;;;;;;14.64;70.84;98475.44;5093192;28;20028;-70
2021/08/03 04:20:12;;;;;;;9.18;6.82;;;;;;;14.63;70.88;98469.13;5093091;28;20040;-70
2021/08/03 04:22:38;;;;;;;9.00;6.30;;;;;;;14.65;70.91;98468.78;5093278;28;20027;-70
2021/08/03 04:25:04;;;;;;;13.55;7.20;;;;;;;14.65;70.85;98460.50;5093021;28;20030;-70
2021/08/03 04:27:30;;;;;;;12.10;7.05;;;;;;;14.68;71.00;98460.66;5093019;28;20028;-70
2021/08/03 04:29:55;;;;;;;12.40;7.38;;;;;;;14.70;71.30;98454.84;5093128;28;20031;-70
2021/08/03 04:32:21;;;;;;;10.38;7.20;;;;;;;14.75;71.49;98471.25;5092770;28;20454;-70
2021/08/03 04:34:46;;;;;;;13.75;7.28;;;;;;;14.79;71.38;98457.59;5093140;28;20028;-70
2021/08/03 04:37:11;;;;;;;9.13;6.88;;;;;;;14.81;71.02;98461.69;5092865;28;20024;-69
2021/08/03 04:39:37;;;;;;;13.80;7.60;;;;;;;14.83;71.59;98453.91;5092723;28;20031;-70
2021/08/03 04:42:03;;;;;;;10.80;6.70;;;;;;;14.88;71.21;98452.91;5092289;28;20103;-70
2021/08/03 04:44:28;;;;;;;13.70;6.80;;;;;;;14.92;71.45;98458.56;5092696;28;20028;-70
2021/08/03 04:46:54;;;;;;;14.00;7.32;;;;;;;14.93;71.21;98449.16;5092538;28;20073;-69
2021/08/03 04:49:19;;;;;;;10.75;6.93;;;;;;;14.93;71.28;98454.69;5086533;28;20074;-70
2021/08/03 04:51:45;;;;;;;10.50;6.90;;;;;;;14.92;71.50;98453.88;5088637;28;20024;-70
2021/08/03 04:54:10;;;;;;;10.50;6.40;;;;;;;14.95;71.30;98449.66;5091786;28;20470;-70
2021/08/03 04:56:35;;;;;;;9.82;6.50;;;;;;;14.97;71.57;98455.66;5091689;28;20051;-69
2021/08/03 04:59:01;;;;;;;9.60;5.82;;;;;;;14.98;71.80;98460.03;5091908;28;20382;-70
2021/08/03 05:01:26;;;;;;;10.48;6.22;;;;;;;15.00;71.32;98455.00;5091642;28;20028;-70
2021/08/03 05:03:51;;;;;;;12.60;7.22;;;;;;;15.03;71.77;98462.66;5091017;28;20047;-69
2021/08/03 05:06:16;;;;;;;9.80;6.55;;;;;;;15.07;71.82;98462.81;5091812;28;20028;-70
2021/08/03 05:08:42;;;;;;;11.23;7.57;;;;;;;15.12;71.92;98468.16;5091883;28;20036;-69
2021/08/03 05:11:07;;;;;;;12.95;7.00;;;;;;;15.20;72.11;98461.00;5091592;28;20496;-70
2021/08/03 05:13:32;;;;;;;10.13;6.47;;;;;;;15.25;72.18;98461.66;5090403;28;20085;-70
2021/08/03 05:15:58;;;;;;;10.73;6.80;;;;;;;15.31;72.04;98460.34;5091537;28;20534;-70
2021/08/03 05:18:27;;;;;;;9.35;6.20;;;;;;;15.37;72.18;98474.78;5091559;28;20457;-70
2021/08/03 05:20:52;;;;;;;12.00;6.95;;;;;;;15.42;72.35;98471.84;5090147;28;20028;-71
2021/08/03 05:23:17;;;;;;;11.20;6.97;;;;;;;15.53;71.86;98474.28;5090081;28;20028;-70
2021/08/03 05:25:43;;;;;;;13.20;7.15;;;;;;;15.64;72.15;98470.03;5091149;28;20436;-70
2021/08/03 05:28:08;;;;;;;13.45;6.90;;;;;;;15.75;72.30;98468.50;5090674;28;20413;-70
2021/08/03 05:30:34;;;;;;;11.55;6.95;;;;;;;15.89;72.31;98478.59;5091692;28;20063;-70
2021/08/03 05:33:00;;;;;;;13.20;6.45;;;;;;;15.99;72.24;98471.88;5091758;28;20062;-71
2021/08/03 05:35:25;;;;;;;9.85;5.97;;;;;;;16.10;72.45;98461.25;5091471;28;20077;-70
2021/08/03 05:37:50;;;;;;;10.45;6.80;;;;;;;16.21;72.24;98468.03;5091580;28;20027;-70
2021/08/03 05:40:16;;;;;;;10.60;7.00;;;;;;;16.28;72.45;98465.53;5091739;28;20024;-70
2021/08/03 05:42:41;;;;;;;10.68;6.80;;;;;;;16.33;72.16;98465.34;5091512;28;20110;-70
2021/08/03 05:45:08;;;;;;;9.27;5.90;;;;;;;16.36;71.88;98469.41;5091539;28;20494;-70
2021/08/03 05:47:34;;;;;;;8.82;6.20;;;;;;;16.43;72.16;98466.13;5091513;28;20055;-70
2021/08/03 05:49:59;;;;;;;9.95;6.78;;;;;;;16.52;71.77;98466.84;5091198;28;20028;-70
2021/08/03 05:52:24;;;;;;;10.38;6.85;;;;;;;16.60;71.89;98459.66;5090694;28;20031;-70
2021/08/03 05:54:50;;;;;;;10.02;6.13;;;;;;;16.64;71.93;98466.16;5091268;28;20034;-70
2021/08/03 05:57:15;;;;;;;11.50;7.15;;;;;;;16.68;71.67;98464.34;5089672;28;20066;-69
2021/08/03 05:59:40;;;;;;;10.05;6.45;;;;;;;16.73;71.73;98471.63;5090588;28;20120;-71
2021/08/03 06:02:06;;;;;;;10.20;6.25;;;;;;;16.78;71.52;98469.44;5090296;28;20020;-69
2021/08/03 06:04:31;;;;;;;9.40;5.68;;;;;;;16.86;71.79;98467.78;5091027;28;20028;-69
2021/08/03 06:06:57;;;;;;;8.30;5.75;;;;;;;16.90;71.61;98470.66;5089935;28;20024;-70
2021/08/03 06:09:25;;;;;;;10.65;6.35;;;;;;;16.98;71.58;98478.13;5091093;28;20043;-70
2021/08/03 06:11:52;;;;;;;10.15;5.63;;;;;;;17.06;71.95;98474.50;5089940;28;20024;-70
2021/08/03 06:14:36;;;;;;;8.63;5.72;;;;;;;17.15;71.20;98477.16;5091210;28;20059;-70
2021/08/03 06:17:07;;;;;;;10.07;5.65;;;;;;;17.18;71.45;98476.50;5090612;28;20028;-70
2021/08/03 06:19:52;;;;;;;11.70;6.43;;;;;;;17.22;71.21;98477.44;5091219;28;20039;-70
2021/08/03 06:22:19;;;;;;;11.90;6.90;;;;;;;17.24;71.33;98480.69;5089939;28;20452;-70
2021/08/03 06:24:47;;;;;;;11.20;7.20;;;;;;;17.26;71.07;98478.38;5091131;28;20428;-70
2021/08/03 06:27:15;;;;;;;10.30;7.50;;;;;;;17.32;71.15;98486.50;5091263;28;20031;-70
2021/08/03 06:29:40;;;;;;;12.85;7.55;;;;;;;17.35;71.01;98486.59;5091158;28;20099;-70
2021/08/03 06:32:08;;;;;;;9.95;7.40;;;;;;;17.36;71.06;98481.84;5091031;28;20100;-70
2021/08/03 06:34:36;;;;;;;13.63;7.90;;;;;;;17.35;70.81;98489.38;5089853;28;20040;-71
2021/08/03 06:37:02;;;;;;;11.55;7.13;;;;;;;17.31;70.80;98477.34;5090780;28;20035;-71
2021/08/03 06:39:27;;;;;;;13.23;7.00;;;;;;;17.32;70.94;98481.75;5088212;28;20016;-71
2021/08/03 06:42:01;;;;;;;11.52;6.82;;;;;;;17.36;70.89;98481.84;5090787;28;20107;-71
2021/08/03 06:44:34;;;;;;;12.70;6.88;;;;;;;17.37;71.00;98477.94;5086833;28;20016;-71
2021/08/03 06:47:01;;;;;;;11.20;6.65;;;;;;;17.42;71.23;98483.28;5090893;28;20114;-72
2021/08/03 06:49:31;;;;;;;9.93;6.47;;;;;;;17.45;71.59;98484.56;5090960;28;20058;-71
2021/08/03 06:51:57;;;;;;;9.23;5.95;;;;;;;17.49;71.02;98485.50;5090964;28;20081;-71
2021/08/03 06:54:27;;;;;;;9.95;5.85;;;;;;;17.47;70.97;98487.81;5090694;28;20028;-71
2021/08/03 06:57:08;;;;;;;8.88;5.70;;;;;;;17.48;71.00;98486.66;5090783;28;20035;-71
2021/08/03 06:59:36;;;;;;;9.57;6.22;;;;;;;17.53;70.98;98492.78;5089601;28;20043;-72
2021/08/03 07:02:06;;;;;;;10.23;5.45;;;;;;;17.60;71.26;98494.19;5091834;28;20029;-72
2021/08/03 07:04:34;;;;;;;7.70;5.82;;;;;;;17.66;71.40;98493.63;5094011;28;20377;-71
2021/08/03 07:07:02;;;;;;;8.45;5.70;;;;;;;17.73;71.24;98486.72;5096002;28;20069;-72
2021/08/03 07:09:29;;;;;;;7.18;5.40;;;;;;;17.80;71.36;98484.19;5095852;28;20119;-71
2021/08/03 07:11:55;;;;;;;7.80;4.95;;;;;;;17.87;71.13;98489.97;5095848;28;20024;-71
2021/08/03 07:14:24;;;;;;;7.78;5.03;;;;;;;17.91;71.09;98492.88;5095750;28;20540;-71
2021/08/03 07:16:54;;;;;;;7.90;5.10;;;;;;;17.96;71.00;98489.88;5095970;28;20030;-70
2021/08/03 07:19:21;;;;;;;8.30;5.28;;;;;;;17.96;70.78;98482.34;5095897;28;20270;-70
2021/08/03 07:21:48;;;;;;;7.05;4.40;;;;;;;18.00;70.77;98488.84;5095687;28;20077;-71
2021/08/03 07:24:13;;;;;;;7.15;4.30;;;;;;;18.05;70.57;98482.28;5094430;28;20037;-71
2021/08/03 07:26:39;;;;;;;6.38;3.88;;;;;;;18.09;70.63;98487.94;5095340;28;20028;-70
2021/08/03 07:29:05;;;;;;;7.03;4.07;;;;;;;18.14;70.49;98487.72;5095744;28;20032;-70
2021/08/03 07:31:31;;;;;;;4.97;3.53;;;;;;;18.18;70.32;98488.66;5095532;28;20028;-71
2021/08/03 07:33:57;;;;;;;6.20;3.95;;;;;;;18.20;70.07;98488.28;5095596;28;20032;-70
2021/08/03 07:36:23;;;;;;;7.30;4.43;;;;;;;18.26;70.11;98484.97;5095587;28;20042;-71
2021/08/03 07:38:54;;;;;;;8.05;4.50;;;;;;;18.32;70.01;98493.06;5080337;28;20025;-71
2021/08/03 07:41:25;;;;;;;6.68;4.30;;;;;;;18.36;69.84;98483.69;5075386;28;20048;-72
2021/08/03 07:43:50;;;;;;;9.38;4.93;;;;;;;18.40;69.88;98490.16;5075307;28;20470;-72
2021/08/03 07:46:16;;;;;;;7.15;4.68;;;;;;;18.45;69.83;98486.31;5075201;28;20016;-71
2021/08/03 07:48:42;;;;;;;6.78;3.90;;;;;;;18.53;69.95;98479.03;5075076;28;20028;-70
2021/08/03 07:51:07;;;;;;;5.88;4.07;;;;;;;18.60;69.73;98479.25;5075217;28;20466;-71
2021/08/03 07:53:35;;;;;;;6.68;3.78;;;;;;;18.68;69.60;98486.63;5075098;28;20025;-71
2021/08/03 07:56:00;;;;;;;6.18;3.85;;;;;;;18.74;69.39;98484.44;5074400;28;20031;-72
2021/08/03 07:58:25;;;;;;;8.68;3.88;;;;;;;18.79;69.11;98481.41;5073181;28;20029;-71
2021/08/03 08:00:51;;;;;;;3.80;2.20;;;;;;;18.86;69.00;98489.16;5073202;28;20502;-71
2021/08/03 08:03:16;;;;;;;4.47;2.80;;;;;;;18.91;68.41;98486.16;5072971;28;20044;-72
2021/08/03 08:05:41;;;;;;;3.30;2.50;;;;;;;18.99;68.34;98487.97;5073012;28;20505;-71
2021/08/03 08:08:07;;;;;;;2.28;1.85;;;;;;;19.10;67.86;98490.28;5071846;28;20029;-70
2021/08/03 08:10:32;;;;;;;2.50;2.15;;;;;;;19.15;67.82;98484.47;5091769;28;20139;-71
2021/08/03 08:12:58;;;;;;;2.40;1.80;;;;;;;19.17;67.15;98482.16;5087753;28;20032;-70
2021/08/03 08:15:23;;;;;;;3.33;2.10;;;;;;;19.21;66.77;98480.28;5093374;28;20024;-70
2021/08/03 08:17:48;;;;;;;3.25;2.53;;;;;;;19.29;67.25;98487.66;5094547;28;20022;-70
2021/08/03 08:20:14;;;;;;;5.13;2.42;;;;;;;19.38;66.95;98478.34;5094410;28;20024;-70
2021/08/03 08:22:43;;;;;;;3.58;2.45;;;;;;;19.42;66.67;98474.50;5094476;28;20025;-70
2021/08/03 08:25:10;;;;;;;4.05;2.80;;;;;;;19.50;66.69;98483.84;5094041;28;20071;-70
2021/08/03 08:27:42;;;;;;;4.15;2.40;;;;;;;19.57;66.68;98483.22;5093772;28;20032;-71
2021/08/03 08:30:08;;;;;;;5.28;2.42;;;;;;;19.57;65.75;98478.47;5093560;28;20020;-70
2021/08/03 08:32:35;;;;;;;4.57;2.40;;;;;;;19.61;65.57;98475.78;5093713;28;20162;-72
2021/08/03 08:35:02;;;;;;;2.42;2.00;;;;;;;19.65;65.45;98476.69;5093609;28;20085;-71
2021/08/03 08:37:28;;;;;;;3.95;2.40;;;;;;;19.70;65.20;98476.44;5093122;28;20032;-70
2021/08/03 08:39:53;;;;;;;3.55;2.33;;;;;;;19.74;64.59;98470.97;5092230;28;20031;-70
2021/08/03 08:42:19;;;;;;;5.60;2.50;;;;;;;19.78;64.34;98483.81;5092940;28;20028;-69
2021/08/03 08:44:48;;;;;;;3.10;1.95;;;;;;;19.76;63.67;98483.34;5091597;28;20465;-70
2021/08/03 08:47:16;;;;;;;3.60;2.60;;;;;;;19.74;63.12;98479.31;5093880;28;20035;-70
2021/08/03 08:49:44;;;;;;;3.10;2.33;;;;;;;19.73;62.84;98474.94;5093267;28;20023;-71
2021/08/03 08:52:13;;;;;;;5.68;2.40;;;;;;;19.75;63.01;98473.38;5092335;28;20043;-70
2021/08/03 08:54:38;;;;;;;3.20;2.20;;;;;;;19.81;62.77;98481.47;5093426;28;20024;-70
2021/08/03 08:57:04;;;;;;;4.38;2.47;;;;;;;19.84;62.83;98472.41;5092018;28;20473;-70
2021/08/03 08:59:31;;;;;;;2.97;2.30;;;;;;;19.88;62.99;98482.50;5092653;28;20035;-72
2021/08/03 09:01:57;;;;;;;3.70;2.33;;;;;;;19.98;63.00;98481.13;5092245;28;20114;-69
2021/08/03 09:04:25;;;;;;;4.35;2.30;;;;;;;20.06;63.16;98471.81;5091760;28;20112;-68
2021/08/03 09:07:07;;;;;;;3.40;2.30;;;;;;;20.17;62.93;98479.63;5090179;28;20028;-68
2021/08/03 09:09:40;;;;;;;3.90;2.85;;;;;;;20.26;63.15;98474.69;5086154;28;20481;-68
2021/08/03 09:12:06;;;;;;;2.85;1.90;;;;;;;20.32;62.30;98473.25;5092790;28;20039;-68
2021/08/03 09:14:36;;;;;;;3.10;2.33;;;;;;;20.38;62.39;98476.53;5092509;28;20024;-69
2021/08/03 09:17:03;;;;;;;4.93;2.35;;;;;;;20.48;62.18;98483.53;5092848;28;20519;-68
2021/08/03 09:19:40;;;;;;;3.40;2.25;;;;;;;20.55;61.87;98482.91;5093047;28;20024;-68
2021/08/03 09:22:14;;;;;;;3.28;2.15;;;;;;;20.58;61.38;98471.03;5092697;28;20082;-68
2021/08/03 09:24:41;;;;;;;5.88;2.20;;;;;;;20.65;61.70;98477.56;5092840;28;20065;-68
2021/08/03 09:27:07;;;;;;;3.00;2.03;;;;;;;20.74;61.42;98471.78;5092457;28;20038;-67
2021/08/03 09:29:44;;;;;;;3.25;1.95;;;;;;;20.80;60.02;98469.53;5093161;28;20103;-67
2021/08/03 09:32:09;;;;;;;3.03;2.28;;;;;;;20.82;60.13;98462.44;5092814;28;20111;-68
2021/08/03 09:34:35;;;;;;;3.70;2.40;;;;;;;20.88;60.21;98462.16;5090450;28;20063;-68
2021/08/03 09:37:00;;;;;;;6.55;2.75;;;;;;;20.95;60.34;98465.09;5081338;28;20035;-68
2021/08/03 09:39:47;;;;;;;3.35;2.22;;;;;;;21.04;60.43;98467.66;5091744;28;20039;-67
2021/08/03 09:42:23;;;;;;;5.40;2.45;;;;;;;21.11;59.93;98457.47;5081366;28;20028;-68
2021/08/03 09:44:52;;;;;;;3.38;2.20;;;;;;;21.20;59.97;98462.00;5078274;28;20039;-69
2021/08/03 09:47:19;;;;;;;2.50;1.92;;;;;;;21.29;60.16;98462.59;5077614;28;20107;-68
2021/08/03 09:49:50;;;;;;;3.40;2.20;;;;;;;21.34;57.98;98462.31;5080054;28;20027;-68
2021/08/03 09:52:21;;;;;;;3.22;2.22;;;;;;;21.41;56.83;98453.25;5088488;28;20426;-68
2021/08/03 09:54:48;;;;;;;3.80;2.00;;;;;;;21.47;57.22;98459.34;5087718;28;20031;-68
2021/08/03 09:57:27;;;;;;;2.47;1.90;;;;;;;21.49;57.17;98457.81;5075514;28;20037;-68
2021/08/03 09:59:54;;;;;;;2.42;1.88;;;;;;;21.54;57.53;98449.13;5068965;28;20183;-67
2021/08/03 10:02:23;;;;;;;2.17;1.98;;;;;;;21.62;56.99;98444.50;5075887;28;20036;-68
2021/08/03 10:04:49;;;;;;;4.85;2.00;;;;;;;21.67;57.17;98447.00;5088127;28;20031;-68
2021/08/03 10:07:15;;;;;;;2.60;2.08;;;;;;;21.70;56.76;98449.06;5076065;28;20486;-68
2021/08/03 10:09:42;;;;;;;4.43;2.05;;;;;;;21.75;56.83;98441.56;5089604;28;20109;-69
2021/08/03 10:12:08;;;;;;;2.75;1.27;;;;;;;21.75;55.27;98447.13;5089436;28;20036;-69
2021/08/03 10:14:34;;;;;;;2.05;1.35;;;;;;;21.79;55.12;98450.78;5088817;28;20032;-68
2021/08/03 10:16:59;;;;;;;1.83;1.30;;;;;;;21.84;55.55;98459.66;5088668;28;20478;-68
2021/08/03 10:19:33;;;;;;;2.53;1.33;;;;;;;21.93;55.57;98455.81;5087474;28;20024;-68
2021/08/03 10:22:24;;;;;;;2.20;1.58;;;;;;;21.95;54.69;98445.88;5087906;28;20027;-68
2021/08/03 10:25:06;;;;;;;4.38;1.83;;;;;;;21.96;53.67;98441.91;5087486;28;20541;-68
2021/08/03 10:27:50;;;;;;;2.17;1.63;;;;;;;22.03;52.44;98438.41;5088906;28;20031;-69
2021/08/03 10:30:27;;;;;;;1.50;1.40;;;;;;;22.10;53.69;98441.31;5088343;28;20027;-69
2021/08/03 10:32:59;;;;;;;3.40;1.48;;;;;;;22.20;54.22;98441.88;5088376;28;20032;-69
2021/08/03 10:35:45;;;;;;;3.83;1.80;;;;;;;22.27;53.14;98437.19;5089365;28;20055;-69
2021/08/03 10:38:12;;;;;;;3.15;1.40;;;;;;;22.37;53.55;98434.94;5089057;28;20027;-69
2021/08/03 10:40:43;;;;;;;2.88;1.65;;;;;;;22.45;53.30;98431.91;5073820;28;20033;-69
2021/08/03 10:43:16;;;;;;;5.10;1.73;;;;;;;22.54;53.36;98431.66;5091945;28;20032;-69
2021/08/03 10:45:43;;;;;;;3.92;1.67;;;;;;;22.65;53.39;98437.38;5093877;28;20035;-69
2021/08/03 10:48:08;;;;;;;2.03;1.60;;;;;;;22.67;53.05;98429.44;5094021;28;20024;-69
2021/08/03 10:50:34;;;;;;;2.70;1.63;;;;;;;22.72;53.02;98423.50;5085660;28;20066;-69
2021/08/03 10:53:06;;;;;;;2.10;1.90;;;;;;;22.77;52.85;98433.53;5072515;28;20021;-68
2021/08/03 10:55:44;;;;;;;1.75;1.63;;;;;;;22.80;52.61;98429.19;5092958;28;20024;-67
2021/08/03 10:58:10;;;;;;;3.33;1.77;;;;;;;22.86;52.63;98420.09;5094424;28;20021;-68
2021/08/03 11:00:42;;;;;;;5.53;3.60;;;;;;;22.94;52.94;98423.78;5093872;28;20389;-67
2021/08/03 11:03:35;;;;;;;3.22;2.17;;;;;;;23.03;52.44;98427.09;5093892;28;20075;-69
2021/08/03 11:06:04;;;;;;;2.72;1.70;;;;;;;23.05;51.43;98429.50;5091993;28;20397;-68
2021/08/03 11:08:34;;;;;;;4.80;2.00;;;;;;;23.05;51.33;98423.91;5093917;28;20485;-68
2021/08/03 11:11:27;;;;;;;1.75;1.50;;;;;;;23.01;50.47;98429.47;5093729;28;20016;-68
2021/08/03 11:13:58;;;;;;;2.78;1.35;;;;;;;22.99;50.78;98429.03;5093164;28;20036;-68
2021/08/03 11:16:23;;;;;;;2.63;1.65;;;;;;;22.96;50.39;98427.00;5078183;28;20528;-68
2021/08/03 11:18:53;;;;;;;2.45;1.75;;;;;;;22.93;50.50;98424.97;5073641;28;20028;-68
2021/08/03 11:21:20;;;;;;;2.22;1.52;;;;;;;22.90;50.30;98423.75;5074161;28;20028;-68
2021/08/03 11:24:00;;;;;;;3.47;1.70;;;;;;;22.89;50.70;98416.53;5086079;28;20063;-68
2021/08/03 11:26:28;;;;;;;2.97;1.45;;;;;;;22.87;50.88;98409.69;5088061;28;20032;-69
2021/08/03 11:29:01;;;;;;;2.28;1.65;;;;;;;22.81;51.08;98409.25;5094020;28;20347;-69
2021/08/03 11:31:46;;;;;;;1.90;1.55;;;;;;;22.77;51.28;98422.38;5075622;28;20113;-68
2021/08/03 11:34:14;;;;;;;3.67;1.98;;;;;;;22.67;51.27;98415.44;5092321;28;20028;-69
2021/08/03 11:37:11;;;;;;;3.27;1.90;;;;;;;22.60;51.52;98410.59;5093976;28;20109;-69